Nearby METAR Reports

 

KRNT - Renton, Washington, USA
Distance from station: NNW 3mi, 4km
Updated: Mon, 15-Jul-2024 12:53pm PDT
Clear
Clear
 Wind from calm
Wind: Calm
Temperature: 70°F, 21°C
Dew Point: 55°F, 13°C
Humidity: 60%
Barometer: 30.13 inHg, 1020.3 hPa
Clouds: Clear
Visibility: 10 miles, 16 km
2024/07/15 19:53 KRNT 151953Z 00000KT 10SM CLR 21/13 A3013 RMK AO2 SLP207 T02060133
KSEA - Seattle/Metro, Washington, USA
Distance from station: W 5mi, 9km
Updated: Mon, 15-Jul-2024 12:53pm PDT
Few Clouds
Few Clouds
 Wind from varies
Wind: varies 5 mph, 7 km/h
Temperature: 66°F, 19°C
Dew Point: 54°F, 12°C
Humidity: 64%
Barometer: 30.14 inHg, 1020.7 hPa
Clouds: Few Clouds
Visibility: 10 miles, 16 km
Cloud details: Few Clouds 2000 ft
2024/07/15 19:53 KSEA 151953Z VRB04KT 10SM FEW020 19/12 A3014 RMK AO2 SLP213 T01890117
KBFI - Seattle/Boeing, Washington, USA
Distance from station: NW 8mi, 13km
Updated: Mon, 15-Jul-2024 12:53pm PDT
Few Clouds
Few Clouds
 Wind from W
Wind: W 6 mph, 9 km/h
Temperature: 70°F, 21°C
Dew Point: 55°F, 13°C
Humidity: 60%
Barometer: 30.14 inHg, 1020.7 hPa
Clouds: Few Clouds
Visibility: 10 miles, 16 km
Cloud details: Few Clouds 2300 ft
2024/07/15 19:53 KBFI 151953Z 26005KT 10SM FEW023 21/13 A3014 RMK AO2 SLP207 T02060128
 
KTIW - Tacoma, Washington, USA
Distance from station: SW 22mi, 36km
Updated: Mon, 15-Jul-2024 12:53pm PDT
Few Clouds
Few Clouds
 Wind from NW
Wind: NW 5 mph, 7 km/h
Temperature: 66°F, 19°C
Dew Point: 55°F, 13°C
Humidity: 68%
Barometer: 30.14 inHg, 1020.7 hPa
Clouds: Few Clouds
Visibility: 10 miles, 16 km
Cloud details: Few Clouds 1500 ft
2024/07/15 19:53 KTIW 151953Z 31004KT 10SM FEW015 19/13 A3014 RMK AO2 SLP205 T01890128
KPLU - Puyallup/Thun, Washington, USA
Distance from station: S 25mi, 41km
Updated: Mon, 15-Jul-2024 12:55pm PDT
Clear
Clear
 Wind from calm
Wind: Calm
Temperature: 72°F, 22°C
Dew Point: 55°F, 13°C
Humidity: 57%
Barometer: 30.14 inHg, 1020.7 hPa
Clouds: Clear
Visibility: 10 miles, 16 km
2024/07/15 19:55 KPLU 151955Z AUTO 00000KT 10SM CLR 22/13 A3014 RMK AO2
KPWT - Bremerton Ntnl, Washington, USA
Distance from station: W 26mi, 41km
Updated: Mon, 15-Jul-2024 12:56pm PDT
Clear
Clear
 Wind from SW
Wind: SW 6 mph, 9 km/h
Temperature: 70°F, 21°C
Dew Point: 57°F, 14°C
Humidity: 64%
Barometer: 30.14 inHg, 1020.7 hPa
Clouds: Clear
Visibility: 10 miles, 16 km
2024/07/15 19:56 KPWT 151956Z AUTO 23005KT 10SM CLR 21/14 A3014 RMK AO2 SLP209 T02110139
 
KTCM - Tacoma/Mc Chord, Washington, USA
Distance from station: SSW 27mi, 43km
Updated: Mon, 15-Jul-2024 12:55pm PDT
Clear
Clear
 Wind from SSW
Wind: SSW 3 mph, 6 km/h
Temperature: 70°F, 21°C
Dew Point: 55°F, 13°C
Humidity: 60%
Barometer: 30.13 inHg, 1020.3 hPa
Clouds: Clear
Visibility: 10 miles, 16 km
2024/07/15 19:55 KTCM 151955Z AUTO 21003KT 10SM CLR 21/13 A3013 RMK AO2 SLP206 T02110125 $
KPAE - Everett, Washington, USA
Distance from station: N 32mi, 51km
Updated: Mon, 15-Jul-2024 12:53pm PDT
Clear
Clear
 Wind from W
Wind: W 8 mph, 13 km/h
Temperature: 68°F, 20°C
Dew Point: 55°F, 13°C
Humidity: 64%
Barometer: 30.14 inHg, 1020.7 hPa
Clouds: Clear
Visibility: 10 miles, 16 km
2024/07/15 19:53 KPAE 151953Z 27007KT 10SM CLR 20/13 A3014 RMK AO2 SLP207 T02000133
KGRF - Fort Lewis/Gray, Washington, USA
Distance from station: SSW 32mi, 52km
Updated: Mon, 15-Jul-2024 12:55pm PDT
Clear
Clear
 Wind from NNW
Wind: NNW 6 mph, 9 km/h
Temperature: 70°F, 21°C
Dew Point: 55°F, 13°C
Humidity: 60%
Barometer: 30.11 inHg, 1019.6 hPa
Clouds: Clear
Visibility: 10 miles, 16 km
2024/07/15 19:55 KGRF 151955Z AUTO 34005KT 10SM CLR 21/13 A3011 RMK AO2 SLP199 T02140125 $
 
KSMP - Stampede Pass, Washington, USA
Distance from station: ESE 42mi, 68km
Updated: Mon, 15-Jul-2024 7:56am PDT
NOT Current
Clear
Clear
 Wind from SW
Wind: SW 6 mph, 9 km/h
Temperature: 52°F, 11°C
Dew Point: 50°F, 10°C
Humidity: 94%
Barometer: 30.16 inHg, 1021.3 hPa
Clouds: Clear
Visibility: 10 miles, 16 km
2024/07/15 14:56 KSMP 151456Z AUTO 23005KT 10SM CLR 11/10 A3016 RMK AO2 SLP191 T01110100 53006
KSHN - Shelton, Washington, USA
Distance from station: WSW 46mi, 75km
Updated: Mon, 15-Jul-2024 12:53pm PDT
Partly cloudy
Partly cloudy
 Wind from varies
Wind: varies 6 mph, 9 km/h
Temperature: 64°F, 18°C
Dew Point: 55°F, 13°C
Humidity: 73%
Barometer: 30.12 inHg, 1020 hPa
Clouds: Partly cloudy
Visibility: 10 miles, 16 km
Cloud details: Partly cloudy 1500 ft
2024/07/15 19:53 KSHN 151953Z AUTO VRB05KT 10SM SCT015 18/13 A3012 RMK AO2 SLP199 T01830133
KOLM - Olympia, Washington, USA
Distance from station: SW 47mi, 76km
Updated: Mon, 15-Jul-2024 12:54pm PDT
Clear
Clear
 Wind from varies
Wind: varies 3 mph, 6 km/h
Temperature: 70°F, 21°C
Dew Point: 55°F, 13°C
Humidity: 60%
Barometer: 30.13 inHg, 1020.3 hPa
Clouds: Clear
Visibility: 10 miles, 16 km
2024/07/15 19:54 KOLM 151954Z VRB03KT 10SM CLR 21/13 A3013 RMK AO2 SLP204 T02060128
 
KAWO - Arlington Muni, Washington, USA
Distance from station: N 49mi, 78km
Updated: Mon, 15-Jul-2024 9:29am PDT
NOT Current
Overcast
Overcast
 Wind from SE
Wind: SE 6 mph, 9 km/h
Temperature: 61°F, 16°C
Dew Point: 55°F, 13°C
Humidity: 83%
Barometer: 30.16 inHg, 1021.3 hPa
Clouds: Overcast
Visibility: 10 miles, 16 km
Cloud details: Overcast 1000 ft
2024/07/15 16:29 KAWO 151629Z AUTO 13005KT 10SM OVC010 16/13 A3016 RMK AO2